sensor_id;sensor_type;location;lat;lon;timestamp;pressure;altitude;pressure_sealevel;temperature;humidity
52319;BME280;38258;51.148;14.068;2024-03-07T00:00:01;99069.28;;;2.42;100.00
52319;BME280;38258;51.148;14.068;2024-03-07T00:02:37;99076.50;;;2.63;100.00
52319;BME280;38258;51.148;14.068;2024-03-07T00:05:04;99069.59;;;2.62;100.00
52319;BME280;38258;51.148;14.068;2024-03-07T00:07:31;99078.09;;;2.51;100.00
52319;BME280;38258;51.148;14.068;2024-03-07T00:09:57;99073.03;;;2.59;100.00
52319;BME280;38258;51.148;14.068;2024-03-07T00:12:25;99067.72;;;2.50;100.00
52319;BME280;38258;51.148;14.068;2024-03-07T00:14:53;99068.69;;;2.57;100.00
52319;BME280;38258;51.148;14.068;2024-03-07T00:17:19;99066.13;;;2.60;100.00
52319;BME280;38258;51.148;14.068;2024-03-07T00:19:46;99064.22;;;2.46;100.00
52319;BME280;38258;51.148;14.068;2024-03-07T00:22:13;99066.97;;;2.59;100.00
52319;BME280;38258;51.148;14.068;2024-03-07T00:24:40;99067.78;;;2.56;100.00
52319;BME280;38258;51.148;14.068;2024-03-07T00:27:08;99062.81;;;2.67;100.00
52319;BME280;38258;51.148;14.068;2024-03-07T00:29:36;99067.06;;;2.63;100.00
52319;BME280;38258;51.148;14.068;2024-03-07T00:32:03;99065.28;;;2.61;100.00
52319;BME280;38258;51.148;14.068;2024-03-07T00:34:30;99066.94;;;2.56;100.00
52319;BME280;38258;51.148;14.068;2024-03-07T00:36:57;99062.88;;;2.73;100.00
52319;BME280;38258;51.148;14.068;2024-03-07T00:39:24;99057.75;;;2.75;100.00
52319;BME280;38258;51.148;14.068;2024-03-07T00:41:51;99058.59;;;2.75;100.00
52319;BME280;38258;51.148;14.068;2024-03-07T00:44:18;99049.16;;;2.76;100.00
52319;BME280;38258;51.148;14.068;2024-03-07T00:46:46;99055.84;;;2.63;100.00
52319;BME280;38258;51.148;14.068;2024-03-07T00:49:13;99056.03;;;2.75;100.00
52319;BME280;38258;51.148;14.068;2024-03-07T00:51:40;99050.84;;;2.75;100.00
52319;BME280;38258;51.148;14.068;2024-03-07T00:54:07;99047.53;;;2.82;100.00
52319;BME280;38258;51.148;14.068;2024-03-07T00:56:33;99046.50;;;2.71;100.00
52319;BME280;38258;51.148;14.068;2024-03-07T00:59:01;99046.63;;;2.82;100.00
52319;BME280;38258;51.148;14.068;2024-03-07T01:01:28;99046.38;;;2.65;100.00
52319;BME280;38258;51.148;14.068;2024-03-07T01:03:56;99052.47;;;2.68;100.00
52319;BME280;38258;51.148;14.068;2024-03-07T01:06:22;99048.38;;;2.83;100.00
52319;BME280;38258;51.148;14.068;2024-03-07T01:08:49;99048.19;;;2.71;100.00
52319;BME280;38258;51.148;14.068;2024-03-07T01:11:17;99051.69;;;2.74;100.00
52319;BME280;38258;51.148;14.068;2024-03-07T01:13:44;99040.53;;;2.75;100.00
52319;BME280;38258;51.148;14.068;2024-03-07T01:16:11;99048.19;;;2.69;100.00
52319;BME280;38258;51.148;14.068;2024-03-07T01:18:39;99040.50;;;2.74;100.00
52319;BME280;38258;51.148;14.068;2024-03-07T01:21:07;99042.19;;;2.70;100.00
52319;BME280;38258;51.148;14.068;2024-03-07T01:23:34;99049.03;;;2.69;100.00
52319;BME280;38258;51.148;14.068;2024-03-07T01:26:01;99049.03;;;2.69;100.00
52319;BME280;38258;51.148;14.068;2024-03-07T01:28:28;99044.75;;;2.70;100.00
52319;BME280;38258;51.148;14.068;2024-03-07T01:30:56;99046.44;;;2.66;100.00
52319;BME280;38258;51.148;14.068;2024-03-07T01:33:24;99048.19;;;2.69;100.00
52319;BME280;38258;51.148;14.068;2024-03-07T01:35:50;99047.25;;;2.62;100.00
52319;BME280;38258;51.148;14.068;2024-03-07T01:38:18;99049.97;;;2.73;100.00
52319;BME280;38258;51.148;14.068;2024-03-07T01:40:45;99049.84;;;2.65;100.00
52319;BME280;38258;51.148;14.068;2024-03-07T01:43:12;99055.00;;;2.64;100.00
52319;BME280;38258;51.148;14.068;2024-03-07T01:45:39;99047.34;;;2.70;100.00
52319;BME280;38258;51.148;14.068;2024-03-07T01:48:09;99045.56;;;2.66;100.00
52319;BME280;38258;51.148;14.068;2024-03-07T01:50:36;99041.38;;;2.73;100.00
52319;BME280;38258;51.148;14.068;2024-03-07T01:53:04;99044.81;;;2.73;100.00
52319;BME280;38258;51.148;14.068;2024-03-07T01:55:33;99036.91;;;2.62;100.00
52319;BME280;38258;51.148;14.068;2024-03-07T01:58:02;99041.25;;;2.66;100.00
52319;BME280;38258;51.148;14.068;2024-03-07T02:00:29;99039.50;;;2.64;100.00
52319;BME280;38258;51.148;14.068;2024-03-07T02:02:55;99030.84;;;2.62;100.00
52319;BME280;38258;51.148;14.068;2024-03-07T02:05:23;99037.75;;;2.63;100.00
52319;BME280;38258;51.148;14.068;2024-03-07T02:07:50;99034.44;;;2.70;100.00
52319;BME280;38258;51.148;14.068;2024-03-07T02:10:17;99034.22;;;2.54;100.00
52319;BME280;38258;51.148;14.068;2024-03-07T02:12:45;99023.84;;;2.53;100.00
52319;BME280;38258;51.148;14.068;2024-03-07T02:15:12;99028.16;;;2.52;100.00
52319;BME280;38258;51.148;14.068;2024-03-07T02:17:40;99021.97;;;2.41;100.00
52319;BME280;38258;51.148;14.068;2024-03-07T02:20:07;99018.78;;;2.61;100.00
52319;BME280;38258;51.148;14.068;2024-03-07T02:22:37;99019.44;;;2.44;100.00
52319;BME280;38258;51.148;14.068;2024-03-07T02:25:05;99026.34;;;2.47;100.00
52319;BME280;38258;51.148;14.068;2024-03-07T02:27:31;99029.72;;;2.43;100.00
52319;BME280;38258;51.148;14.068;2024-03-07T02:29:58;99027.84;;;2.31;100.00
52319;BME280;38258;51.148;14.068;2024-03-07T02:32:27;99025.41;;;2.42;100.00
52319;BME280;38258;51.148;14.068;2024-03-07T02:34:54;99022.81;;;2.42;100.00
52319;BME280;38258;51.148;14.068;2024-03-07T02:37:20;99016.88;;;2.46;100.00
52319;BME280;38258;51.148;14.068;2024-03-07T02:39:48;99024.63;;;2.46;100.00
52319;BME280;38258;51.148;14.068;2024-03-07T02:42:15;99017.72;;;2.45;100.00
52319;BME280;38258;51.148;14.068;2024-03-07T02:44:42;99021.97;;;2.43;100.00
52319;BME280;38258;51.148;14.068;2024-03-07T02:47:09;99018.63;;;2.47;100.00
52319;BME280;38258;51.148;14.068;2024-03-07T02:49:35;99011.63;;;2.41;100.00
52319;BME280;38258;51.148;14.068;2024-03-07T02:52:02;99012.44;;;2.37;100.00
52319;BME280;38258;51.148;14.068;2024-03-07T02:54:32;99010.88;;;2.47;100.00
52319;BME280;38258;51.148;14.068;2024-03-07T02:57:00;99013.34;;;2.40;100.00
52319;BME280;38258;51.148;14.068;2024-03-07T02:59:27;99012.59;;;2.48;100.00
52319;BME280;38258;51.148;14.068;2024-03-07T03:01:54;99011.72;;;2.46;100.00
52319;BME280;38258;51.148;14.068;2024-03-07T03:04:21;99012.50;;;2.40;100.00
52319;BME280;38258;51.148;14.068;2024-03-07T03:06:47;99010.94;;;2.53;100.00
52319;BME280;38258;51.148;14.068;2024-03-07T03:09:14;99007.47;;;2.51;100.00
52319;BME280;38258;51.148;14.068;2024-03-07T03:11:43;99006.66;;;2.55;100.00
52319;BME280;38258;51.148;14.068;2024-03-07T03:14:11;99004.75;;;2.42;100.00
52319;BME280;38258;51.148;14.068;2024-03-07T03:16:41;99010.78;;;2.42;100.00
52319;BME280;38258;51.148;14.068;2024-03-07T03:19:08;99007.41;;;2.45;100.00
52319;BME280;38258;51.148;14.068;2024-03-07T03:21:35;99002.16;;;2.40;100.00
52319;BME280;38258;51.148;14.068;2024-03-07T03:24:02;99014.22;;;2.41;100.00
52319;BME280;38258;51.148;14.068;2024-03-07T03:26:29;99008.03;;;2.30;100.00
52319;BME280;38258;51.148;14.068;2024-03-07T03:28:56;99009.72;;;2.28;100.00
52319;BME280;38258;51.148;14.068;2024-03-07T03:31:24;99008.00;;;2.28;100.00
52319;BME280;38258;51.148;14.068;2024-03-07T03:33:51;99009.53;;;2.15;100.00
52319;BME280;38258;51.148;14.068;2024-03-07T03:36:18;99011.16;;;2.08;100.00
52319;BME280;38258;51.148;14.068;2024-03-07T03:38:45;99005.06;;;2.05;100.00
52319;BME280;38258;51.148;14.068;2024-03-07T03:41:15;99007.63;;;2.05;100.00
52319;BME280;38258;51.148;14.068;2024-03-07T03:43:41;99001.53;;;2.00;100.00
52319;BME280;38258;51.148;14.068;2024-03-07T03:46:09;99001.53;;;2.00;100.00
52319;BME280;38258;51.148;14.068;2024-03-07T03:48:38;99004.00;;;1.93;100.00
52319;BME280;38258;51.148;14.068;2024-03-07T03:51:06;99002.16;;;1.84;100.00
52319;BME280;38258;51.148;14.068;2024-03-07T03:53:34;99004.72;;;1.84;100.00
52319;BME280;38258;51.148;14.068;2024-03-07T03:56:00;99004.69;;;1.81;100.00
52319;BME280;38258;51.148;14.068;2024-03-07T03:58:29;99007.25;;;1.80;100.00
52319;BME280;38258;51.148;14.068;2024-03-07T04:00:56;99009.84;;;1.81;100.00
52319;BME280;38258;51.148;14.068;2024-03-07T04:03:24;99009.84;;;1.81;100.00
52319;BME280;38258;51.148;14.068;2024-03-07T04:05:52;99009.75;;;1.75;100.00
52319;BME280;38258;51.148;14.068;2024-03-07T04:08:20;99017.41;;;1.71;100.00
52319;BME280;38258;51.148;14.068;2024-03-07T04:10:47;99014.06;;;1.76;100.00
52319;BME280;38258;51.148;14.068;2024-03-07T04:13:13;99006.31;;;1.76;100.00
52319;BME280;38258;51.148;14.068;2024-03-07T04:15:40;99013.25;;;1.80;100.00
52319;BME280;38258;51.148;14.068;2024-03-07T04:18:07;99003.72;;;1.75;100.00
52319;BME280;38258;51.148;14.068;2024-03-07T04:20:34;99010.59;;;1.76;100.00
52319;BME280;38258;51.148;14.068;2024-03-07T04:23:02;99016.47;;;1.67;100.00
52319;BME280;38258;51.148;14.068;2024-03-07T04:25:30;99013.88;;;1.65;100.00
52319;BME280;38258;51.148;14.068;2024-03-07T04:27:58;99016.44;;;1.64;100.00
52319;BME280;38258;51.148;14.068;2024-03-07T04:32:54;99015.41;;;1.55;100.00
52319;BME280;38258;51.148;14.068;2024-03-07T04:35:20;99018.88;;;1.58;100.00
52319;BME280;38258;51.148;14.068;2024-03-07T04:37:47;99019.47;;;1.43;100.00
52319;BME280;38258;51.148;14.068;2024-03-07T04:40:15;99022.81;;;1.37;100.00
52319;BME280;38258;51.148;14.068;2024-03-07T04:42:42;99015.78;;;1.28;100.00
52319;BME280;38258;51.148;14.068;2024-03-07T04:45:10;99023.53;;;1.30;100.00
52319;BME280;38258;51.148;14.068;2024-03-07T04:47:38;99030.53;;;1.37;100.00
52319;BME280;38258;51.148;14.068;2024-03-07T04:50:06;99027.16;;;1.39;100.00
52319;BME280;38258;51.148;14.068;2024-03-07T04:52:33;99028.81;;;1.36;100.00
52319;BME280;38258;51.148;14.068;2024-03-07T04:55:00;99030.50;;;1.35;100.00
52319;BME280;38258;51.148;14.068;2024-03-07T04:57:28;99041.34;;;1.17;100.00
52319;BME280;38258;51.148;14.068;2024-03-07T04:59:54;99033.50;;;1.12;100.00
52319;BME280;38258;51.148;14.068;2024-03-07T05:02:22;99036.00;;;1.08;100.00
52319;BME280;38258;51.148;14.068;2024-03-07T05:04:49;99040.16;;;1.01;100.00
52319;BME280;38258;51.148;14.068;2024-03-07T05:07:17;99032.63;;;1.10;100.00
52319;BME280;38258;51.148;14.068;2024-03-07T05:09:44;99029.28;;;1.16;100.00
52319;BME280;38258;51.148;14.068;2024-03-07T05:12:11;99035.94;;;1.06;100.00
52319;BME280;38258;51.148;14.068;2024-03-07T05:14:39;99028.47;;;1.19;100.00
52319;BME280;38258;51.148;14.068;2024-03-07T05:17:15;99036.94;;;1.11;100.00
52319;BME280;38258;51.148;14.068;2024-03-07T05:19:44;99038.47;;;1.03;100.00
52319;BME280;38258;51.148;14.068;2024-03-07T05:22:12;99039.38;;;1.05;100.00
52319;BME280;38258;51.148;14.068;2024-03-07T05:24:41;99044.47;;;1.02;100.00
52319;BME280;38258;51.148;14.068;2024-03-07T05:27:08;99039.22;;;0.97;100.00
52319;BME280;38258;51.148;14.068;2024-03-07T05:29:36;99044.78;;;0.76;100.00
52319;BME280;38258;51.148;14.068;2024-03-07T05:34:56;99046.31;;;0.68;100.00
52319;BME280;38258;51.148;14.068;2024-03-07T05:37:23;99045.91;;;0.49;100.00
52319;BME280;38258;51.148;14.068;2024-03-07T05:39:50;99050.78;;;0.37;100.00
52319;BME280;38258;51.148;14.068;2024-03-07T05:42:17;99051.88;;;0.48;100.00
52319;BME280;38258;51.148;14.068;2024-03-07T05:44:44;99056.00;;;0.41;100.00
52319;BME280;38258;51.148;14.068;2024-03-07T05:47:11;99057.50;;;0.32;100.00
52319;BME280;38258;51.148;14.068;2024-03-07T05:49:39;99059.03;;;0.23;100.00
52319;BME280;38258;51.148;14.068;2024-03-07T05:52:07;99063.59;;;0.35;100.00
52319;BME280;38258;51.148;14.068;2024-03-07T05:54:34;99058.88;;;0.16;100.00
52319;BME280;38258;51.148;14.068;2024-03-07T05:57:00;99060.59;;;0.17;100.00
52319;BME280;38258;51.148;14.068;2024-03-07T05:59:27;99060.56;;;0.15;100.00
52319;BME280;38258;51.148;14.068;2024-03-07T06:01:56;99056.47;;;0.23;100.00
52319;BME280;38258;51.148;14.068;2024-03-07T06:04:23;99052.69;;;0.09;100.00
52319;BME280;38258;51.148;14.068;2024-03-07T06:06:50;99065.03;;;0.22;100.00
52319;BME280;38258;51.148;14.068;2024-03-07T06:09:17;99059.56;;;0.10;100.00
52319;BME280;38258;51.148;14.068;2024-03-07T06:11:48;99065.56;;;0.10;100.00
52319;BME280;38258;51.148;14.068;2024-03-07T06:14:20;99067.81;;;-0.04;100.00
52319;BME280;38258;51.148;14.068;2024-03-07T06:16:48;99075.91;;;0.12;100.00
52319;BME280;38258;51.148;14.068;2024-03-07T06:19:15;99077.41;;;0.02;100.00
52319;BME280;38258;51.148;14.068;2024-03-07T06:21:42;99068.66;;;-0.03;100.00
52319;BME280;38258;51.148;14.068;2024-03-07T06:24:09;99081.47;;;-0.06;100.00
52319;BME280;38258;51.148;14.068;2024-03-07T06:26:41;99084.63;;;-0.17;100.00
52319;BME280;38258;51.148;14.068;2024-03-07T06:29:25;99082.59;;;-0.29;100.00
52319;BME280;38258;51.148;14.068;2024-03-07T06:31:52;99082.84;;;-0.19;100.00
52319;BME280;38258;51.148;14.068;2024-03-07T06:34:20;99083.50;;;-0.28;100.00
52319;BME280;38258;51.148;14.068;2024-03-07T06:36:46;99077.66;;;-0.21;100.00
52319;BME280;38258;51.148;14.068;2024-03-07T06:39:13;99076.97;;;-0.15;100.00
52319;BME280;38258;51.148;14.068;2024-03-07T06:41:42;99082.56;;;-0.30;100.00
52319;BME280;38258;51.148;14.068;2024-03-07T06:44:11;99076.06;;;-0.49;100.00
52319;BME280;38258;51.148;14.068;2024-03-07T06:46:37;99081.28;;;-0.46;100.00
52319;BME280;38258;51.148;14.068;2024-03-07T06:49:04;99081.38;;;-0.43;100.00
52319;BME280;38258;51.148;14.068;2024-03-07T06:51:35;99085.34;;;-0.54;100.00
52319;BME280;38258;51.148;14.068;2024-03-07T06:54:02;99087.06;;;-0.55;100.00
52319;BME280;38258;51.148;14.068;2024-03-07T06:56:29;99092.28;;;-0.52;100.00
52319;BME280;38258;51.148;14.068;2024-03-07T06:58:57;99089.84;;;-0.46;100.00
52319;BME280;38258;51.148;14.068;2024-03-07T07:01:24;99084.28;;;-0.31;100.00
52319;BME280;38258;51.148;14.068;2024-03-07T07:03:51;99094.69;;;-0.26;100.00
52319;BME280;38258;51.148;14.068;2024-03-07T07:06:20;99089.81;;;-0.15;100.00
52319;BME280;38258;51.148;14.068;2024-03-07T07:08:46;99094.50;;;0.02;100.00
52319;BME280;38258;51.148;14.068;2024-03-07T07:11:13;99087.09;;;-0.21;100.00
52319;BME280;38258;51.148;14.068;2024-03-07T07:13:40;99095.59;;;-0.22;100.00
52319;BME280;38258;51.148;14.068;2024-03-07T07:16:08;99087.63;;;0.01;100.00
52319;BME280;38258;51.148;14.068;2024-03-07T07:18:35;99093.34;;;-0.11;100.00
52319;BME280;38258;51.148;14.068;2024-03-07T07:21:02;99092.31;;;-0.18;100.00
52319;BME280;38258;51.148;14.068;2024-03-07T07:23:29;99091.09;;;0.01;100.00
52319;BME280;38258;51.148;14.068;2024-03-07T07:25:56;99088.78;;;0.12;100.00
52319;BME280;38258;51.148;14.068;2024-03-07T07:28:23;99096.81;;;0.61;100.00
52319;BME280;38258;51.148;14.068;2024-03-07T07:30:49;99092.81;;;0.74;100.00
52319;BME280;38258;51.148;14.068;2024-03-07T07:33:17;99086.59;;;0.27;100.00
52319;BME280;38258;51.148;14.068;2024-03-07T07:35:44;99084.19;;;0.35;100.00
52319;BME280;38258;51.148;14.068;2024-03-07T07:38:11;99087.53;;;0.31;100.00
52319;BME280;38258;51.148;14.068;2024-03-07T07:40:40;99082.31;;;0.66;100.00
52319;BME280;38258;51.148;14.068;2024-03-07T07:43:06;99085.25;;;0.44;100.00
52319;BME280;38258;51.148;14.068;2024-03-07T07:45:33;99090.75;;;0.59;100.00
52319;BME280;38258;51.148;14.068;2024-03-07T07:48:01;99093.53;;;0.30;100.00
52319;BME280;38258;51.148;14.068;2024-03-07T07:50:29;99098.19;;;1.26;100.00
52319;BME280;38258;51.148;14.068;2024-03-07T07:52:58;99094.78;;;1.27;100.00
52319;BME280;38258;51.148;14.068;2024-03-07T07:55:26;99104.00;;;0.76;100.00
52319;BME280;38258;51.148;14.068;2024-03-07T07:57:54;99099.84;;;0.83;100.00
52319;BME280;38258;51.148;14.068;2024-03-07T08:00:22;99101.47;;;0.78;100.00
52319;BME280;38258;51.148;14.068;2024-03-07T08:02:55;99101.56;;;1.65;100.00
52319;BME280;38258;51.148;14.068;2024-03-07T08:05:23;99095.66;;;1.73;100.00
52319;BME280;38258;51.148;14.068;2024-03-07T08:07:53;99098.94;;;2.11;100.00
52319;BME280;38258;51.148;14.068;2024-03-07T08:10:21;99100.38;;;1.49;100.00
52319;BME280;38258;51.148;14.068;2024-03-07T08:12:49;99100.03;;;0.91;100.00
52319;BME280;38258;51.148;14.068;2024-03-07T08:15:16;99106.66;;;1.19;100.00
52319;BME280;38258;51.148;14.068;2024-03-07T08:17:44;99105.16;;;2.23;100.00
52319;BME280;38258;51.148;14.068;2024-03-07T08:20:12;99106.47;;;3.13;100.00
52319;BME280;38258;51.148;14.068;2024-03-07T08:22:40;99108.22;;;2.02;100.00
52319;BME280;38258;51.148;14.068;2024-03-07T08:25:09;99114.47;;;1.67;100.00
52319;BME280;38258;51.148;14.068;2024-03-07T08:27:37;99114.75;;;1.82;100.00
52319;BME280;38258;51.148;14.068;2024-03-07T08:30:05;99112.63;;;1.60;100.00
52319;BME280;38258;51.148;14.068;2024-03-07T08:32:33;99104.38;;;1.79;100.00
52319;BME280;38258;51.148;14.068;2024-03-07T08:35:03;99100.88;;;1.30;100.00
52319;BME280;38258;51.148;14.068;2024-03-07T08:37:34;99102.31;;;1.61;100.00
52319;BME280;38258;51.148;14.068;2024-03-07T08:40:00;99106.03;;;1.74;100.00
52319;BME280;38258;51.148;14.068;2024-03-07T08:42:32;99103.44;;;1.74;100.00
52319;BME280;38258;51.148;14.068;2024-03-07T08:44:59;99114.66;;;1.76;100.00
52319;BME280;38258;51.148;14.068;2024-03-07T08:47:26;99104.94;;;1.18;100.00
52319;BME280;38258;51.148;14.068;2024-03-07T08:49:54;99106.06;;;1.77;100.00
52319;BME280;38258;51.148;14.068;2024-03-07T08:52:20;99106.91;;;1.76;100.00
52319;BME280;38258;51.148;14.068;2024-03-07T08:54:47;99100.59;;;2.08;100.00
52319;BME280;38258;51.148;14.068;2024-03-07T08:57:14;99108.75;;;1.82;100.00
52319;BME280;38258;51.148;14.068;2024-03-07T08:59:43;99114.16;;;1.96;100.00
52319;BME280;38258;51.148;14.068;2024-03-07T09:02:10;99109.59;;;1.82;100.00
52319;BME280;38258;51.148;14.068;2024-03-07T09:04:37;99110.44;;;1.80;100.00
52319;BME280;38258;51.148;14.068;2024-03-07T09:07:04;99103.81;;;1.94;100.00
52319;BME280;38258;51.148;14.068;2024-03-07T09:09:31;99099.84;;;2.69;100.00
52319;BME280;38258;51.148;14.068;2024-03-07T09:11:57;99099.22;;;2.29;100.00
52319;BME280;38258;51.148;14.068;2024-03-07T09:14:24;99105.59;;;1.98;100.00
52319;BME280;38258;51.148;14.068;2024-03-07T09:16:52;99108.66;;;2.28;100.00
52319;BME280;38258;51.148;14.068;2024-03-07T09:19:19;99111.41;;;1.87;100.00
52319;BME280;38258;51.148;14.068;2024-03-07T09:21:50;99105.22;;;2.28;100.00
52319;BME280;38258;51.148;14.068;2024-03-07T09:24:18;99103.84;;;3.08;100.00
52319;BME280;38258;51.148;14.068;2024-03-07T09:26:47;99095.19;;;3.06;100.00
52319;BME280;38258;51.148;14.068;2024-03-07T09:29:13;99095.97;;;3.72;100.00
52319;BME280;38258;51.148;14.068;2024-03-07T09:31:40;99102.00;;;2.43;100.00
52319;BME280;38258;51.148;14.068;2024-03-07T09:34:08;99104.44;;;2.87;100.00
52319;BME280;38258;51.148;14.068;2024-03-07T09:36:35;99099.16;;;2.24;100.00
52319;BME280;38258;51.148;14.068;2024-03-07T09:39:01;99100.63;;;2.63;100.00
52319;BME280;38258;51.148;14.068;2024-03-07T09:41:27;99103.19;;;2.09;100.00
52319;BME280;38258;51.148;14.068;2024-03-07T09:43:54;99098.31;;;2.80;100.00
52319;BME280;38258;51.148;14.068;2024-03-07T09:46:23;99093.63;;;2.56;100.00
52319;BME280;38258;51.148;14.068;2024-03-07T09:48:50;99103.88;;;3.10;100.00
52319;BME280;38258;51.148;14.068;2024-03-07T09:51:20;99102.22;;;2.53;100.00
52319;BME280;38258;51.148;14.068;2024-03-07T09:53:49;99100.50;;;2.56;100.00
52319;BME280;38258;51.148;14.068;2024-03-07T09:56:20;99103.38;;;2.19;100.00
52319;BME280;38258;51.148;14.068;2024-03-07T09:58:49;99099.63;;;2.01;100.00
52319;BME280;38258;51.148;14.068;2024-03-07T10:01:17;99102.75;;;2.34;100.00
52319;BME280;38258;51.148;14.068;2024-03-07T10:03:47;99113.28;;;1.95;100.00
52319;BME280;38258;51.148;14.068;2024-03-07T10:06:14;99102.06;;;2.44;100.00
52319;BME280;38258;51.148;14.068;2024-03-07T10:08:43;99105.78;;;2.63;100.00
52319;BME280;38258;51.148;14.068;2024-03-07T10:11:10;99112.00;;;2.76;100.00
52319;BME280;38258;51.148;14.068;2024-03-07T10:13:37;99109.28;;;2.65;100.00
52319;BME280;38258;51.148;14.068;2024-03-07T10:16:04;99114.28;;;2.02;100.00
52319;BME280;38258;51.148;14.068;2024-03-07T10:18:31;99114.47;;;2.13;100.00
52319;BME280;38258;51.148;14.068;2024-03-07T10:20:58;99113.56;;;2.11;100.00
52319;BME280;38258;51.148;14.068;2024-03-07T10:23:26;99115.59;;;2.31;100.00
52319;BME280;38258;51.148;14.068;2024-03-07T10:25:54;99108.38;;;2.63;100.00
52319;BME280;38258;51.148;14.068;2024-03-07T10:28:21;99109.13;;;2.54;100.00
52319;BME280;38258;51.148;14.068;2024-03-07T10:30:49;99105.63;;;2.52;100.00
52319;BME280;38258;51.148;14.068;2024-03-07T10:33:17;99096.66;;;2.29;100.00
52319;BME280;38258;51.148;14.068;2024-03-07T10:35:46;99100.31;;;2.43;100.00
52319;BME280;38258;51.148;14.068;2024-03-07T10:38:14;99102.97;;;2.49;100.00
52319;BME280;38258;51.148;14.068;2024-03-07T10:40:45;99102.25;;;2.58;100.00
52319;BME280;38258;51.148;14.068;2024-03-07T10:43:15;99092.41;;;2.34;100.00
52319;BME280;38258;51.148;14.068;2024-03-07T10:45:45;99099.56;;;2.50;100.00
52319;BME280;38258;51.148;14.068;2024-03-07T10:48:13;99096.47;;;2.18;100.00
52319;BME280;38258;51.148;14.068;2024-03-07T10:50:50;99094.47;;;2.53;100.00
52319;BME280;38258;51.148;14.068;2024-03-07T10:53:24;99095.28;;;3.13;100.00
52319;BME280;38258;51.148;14.068;2024-03-07T10:56:22;99092.28;;;2.81;100.00
52319;BME280;38258;51.148;14.068;2024-03-07T10:58:58;99101.28;;;3.10;100.00
52319;BME280;38258;51.148;14.068;2024-03-07T11:01:30;99094.34;;;2.47;100.00
52319;BME280;38258;51.148;14.068;2024-03-07T11:03:59;99101.53;;;2.65;100.00
52319;BME280;38258;51.148;14.068;2024-03-07T11:06:30;99099.81;;;2.67;100.00
52319;BME280;38258;51.148;14.068;2024-03-07T11:09:00;99100.19;;;2.35;100.00
52319;BME280;38258;51.148;14.068;2024-03-07T11:11:29;99102.63;;;2.26;100.00
52319;BME280;38258;51.148;14.068;2024-03-07T11:13:57;99102.38;;;2.64;100.00
52319;BME280;38258;51.148;14.068;2024-03-07T11:16:25;99098.97;;;2.68;100.00
52319;BME280;38258;51.148;14.068;2024-03-07T11:19:18;99093.03;;;2.74;100.00
52319;BME280;38258;51.148;14.068;2024-03-07T11:21:44;99093.00;;;2.71;100.00
52319;BME280;38258;51.148;14.068;2024-03-07T11:24:22;99090.69;;;2.91;100.00
52319;BME280;38258;51.148;14.068;2024-03-07T11:26:51;99084.06;;;3.12;100.00
52319;BME280;38258;51.148;14.068;2024-03-07T11:29:46;99093.22;;;2.87;100.00
52319;BME280;38258;51.148;14.068;2024-03-07T11:32:14;99087.59;;;3.17;100.00
52319;BME280;38258;51.148;14.068;2024-03-07T11:34:42;99088.19;;;2.97;100.00
52319;BME280;38258;51.148;14.068;2024-03-07T11:37:17;99078.38;;;3.39;100.00
52319;BME280;38258;51.148;14.068;2024-03-07T11:39:48;99076.91;;;3.62;100.00
52319;BME280;38258;51.148;14.068;2024-03-07T11:42:20;99072.28;;;3.33;100.00
52319;BME280;38258;51.148;14.068;2024-03-07T11:44:52;99071.25;;;3.99;100.00
52319;BME280;38258;51.148;14.068;2024-03-07T11:47:21;99068.28;;;3.64;100.00
52319;BME280;38258;51.148;14.068;2024-03-07T11:49:50;99078.81;;;3.03;100.00
52319;BME280;38258;51.148;14.068;2024-03-07T11:52:18;99064.09;;;3.00;100.00
52319;BME280;38258;51.148;14.068;2024-03-07T11:54:44;99065.34;;;3.30;100.00
52319;BME280;38258;51.148;14.068;2024-03-07T11:57:18;99061.66;;;5.15;90.46
52319;BME280;38258;51.148;14.068;2024-03-07T11:59:53;99048.94;;;6.35;80.81
52319;BME280;38258;51.148;14.068;2024-03-07T12:02:19;99046.84;;;7.58;84.92
52319;BME280;38258;51.148;14.068;2024-03-07T12:04:47;99045.47;;;6.47;81.12
52319;BME280;38258;51.148;14.068;2024-03-07T12:07:15;99051.47;;;5.91;87.24
52319;BME280;38258;51.148;14.068;2024-03-07T12:09:43;99048.28;;;4.42;79.51
52319;BME280;38258;51.148;14.068;2024-03-07T12:12:11;99051.13;;;4.81;97.95
52319;BME280;38258;51.148;14.068;2024-03-07T12:14:38;99047.34;;;4.32;87.42
52319;BME280;38258;51.148;14.068;2024-03-07T12:17:06;99043.66;;;4.04;88.71
52319;BME280;38258;51.148;14.068;2024-03-07T12:19:33;99042.38;;;4.60;88.48
52319;BME280;38258;51.148;14.068;2024-03-07T12:22:00;99035.59;;;3.70;85.65
52319;BME280;38258;51.148;14.068;2024-03-07T12:24:28;99037.19;;;3.55;88.89
52319;BME280;38258;51.148;14.068;2024-03-07T12:27:04;99033.16;;;3.85;89.43
52319;BME280;38258;51.148;14.068;2024-03-07T12:29:31;99035.81;;;3.93;93.53
52319;BME280;38258;51.148;14.068;2024-03-07T12:31:58;99041.03;;;3.98;93.26
52319;BME280;38258;51.148;14.068;2024-03-07T12:34:27;99038.44;;;3.98;98.60
52319;BME280;38258;51.148;14.068;2024-03-07T12:36:56;99035.81;;;3.96;97.10
52319;BME280;38258;51.148;14.068;2024-03-07T12:39:22;99045.13;;;3.74;95.13
52319;BME280;38258;51.148;14.068;2024-03-07T12:41:51;99041.31;;;3.42;92.30
52319;BME280;38258;51.148;14.068;2024-03-07T12:44:19;99041.69;;;3.78;98.89
52319;BME280;38258;51.148;14.068;2024-03-07T12:46:46;99035.38;;;3.46;92.95
52319;BME280;38258;51.148;14.068;2024-03-07T12:49:14;99041.31;;;3.42;93.63
52319;BME280;38258;51.148;14.068;2024-03-07T12:51:43;99032.28;;;3.86;90.07
52319;BME280;38258;51.148;14.068;2024-03-07T12:54:09;99035.31;;;4.39;84.22
52319;BME280;38258;51.148;14.068;2024-03-07T12:56:36;99033.13;;;5.15;86.82
52319;BME280;38258;51.148;14.068;2024-03-07T12:59:04;99029.78;;;5.40;89.73